createdAt,value
2023-05-02T00:04:20.129Z,89.71
2023-05-02T00:09:26.107Z,92.19
2023-05-02T00:14:33.823Z,92.00
2023-05-02T00:19:41.820Z,90.24
2023-05-02T00:24:47.118Z,91.42
2023-05-02T00:29:56.208Z,91.92
2023-05-02T00:35:01.482Z,90.81
2023-05-02T00:40:08.217Z,91.80
2023-05-02T00:45:16.314Z,91.85
2023-05-02T00:50:24.028Z,92.64
2023-05-02T00:55:29.380Z,93.94
2023-05-02T01:00:49.590Z,93.79
2023-05-02T01:06:17.242Z,94.98
2023-05-02T01:11:37.648Z,94.49
2023-05-02T01:16:48.278Z,95.39
2023-05-02T01:21:56.794Z,93.89
2023-05-02T01:27:17.468Z,93.24
2023-05-02T01:32:27.740Z,94.92
2023-05-02T01:37:33.914Z,94.82
2023-05-02T01:42:40.332Z,95.48
2023-05-02T01:47:49.711Z,94.80
2023-05-02T01:52:56.894Z,95.05
2023-05-02T01:58:04.636Z,96.49
2023-05-02T02:03:13.576Z,95.42
2023-05-02T02:08:18.816Z,94.04
2023-05-02T02:13:30.625Z,92.80
2023-05-02T02:18:40.807Z,93.23
2023-05-02T02:23:51.964Z,95.21
2023-05-02T02:28:58.249Z,94.99
2023-05-02T02:34:06.685Z,94.31
2023-05-02T02:39:22.932Z,94.22
2023-05-02T02:44:38.081Z,94.21
2023-05-02T02:49:53.935Z,93.66
2023-05-02T02:55:04.109Z,93.01
2023-05-02T03:00:14.875Z,93.44
2023-05-02T03:05:26.865Z,93.90
2023-05-02T03:10:33.911Z,92.85
2023-05-02T03:16:32.774Z,92.99
2023-05-02T03:21:44.401Z,93.90
2023-05-02T03:26:59.284Z,92.67
2023-05-02T03:32:11.283Z,93.96
2023-05-02T03:37:30.626Z,92.95
2023-05-02T03:42:43.106Z,93.74
2023-05-02T03:48:00.595Z,94.31
2023-05-02T03:53:10.670Z,95.35
2023-05-02T03:58:27.802Z,94.60
2023-05-02T04:03:36.535Z,94.82
2023-05-02T04:08:44.526Z,94.69
2023-05-02T04:13:53.477Z,92.98
2023-05-02T04:18:58.964Z,94.59
2023-05-02T04:24:10.177Z,94.13
2023-05-02T04:29:15.635Z,94.66
2023-05-02T04:34:23.926Z,95.38
2023-05-02T04:39:35.201Z,94.75
2023-05-02T04:44:55.275Z,94.43
2023-05-02T04:50:02.010Z,94.61
2023-05-02T04:55:11.100Z,95.21
2023-05-02T05:00:17.834Z,94.83
2023-05-02T05:05:23.827Z,94.23
2023-05-02T05:10:32.839Z,95.36
2023-05-02T05:15:39.250Z,94.22
2023-05-02T05:21:02.316Z,94.88
2023-05-02T05:26:21.180Z,93.08
2023-05-02T05:31:29.641Z,93.06
2023-05-02T05:36:40.117Z,93.03
2023-05-02T05:41:55.259Z,93.16
2023-05-02T05:47:10.412Z,91.34
2023-05-02T05:52:17.656Z,91.03
2023-05-02T05:57:26.108Z,89.99
2023-05-02T06:02:38.801Z,87.58
2023-05-02T06:07:46.251Z,86.67
2023-05-02T06:12:57.202Z,85.60
2023-05-02T06:18:10.560Z,81.75
2023-05-02T06:23:15.704Z,77.66
2023-05-02T06:28:32.419Z,79.29
2023-05-02T06:33:39.212Z,79.70
2023-05-02T06:38:44.264Z,80.88
2023-05-02T06:43:52.696Z,78.96
2023-05-02T06:48:57.945Z,79.91
2023-05-02T06:54:03.164Z,80.28
2023-05-02T06:59:12.069Z,77.94
2023-05-02T07:04:19.683Z,80.84
2023-05-02T07:09:25.350Z,79.44
2023-05-02T07:14:33.032Z,76.79
2023-05-02T07:19:38.254Z,78.66
2023-05-02T07:24:44.614Z,76.54
2023-05-02T07:29:52.734Z,78.55
2023-05-02T07:34:57.960Z,78.97
2023-05-02T07:40:03.451Z,79.03
2023-05-02T07:45:14.031Z,75.68
2023-05-02T07:50:19.164Z,78.09
2023-05-02T07:55:26.705Z,81.56
2023-05-02T08:00:34.577Z,80.64
2023-05-02T08:05:39.976Z,81.15
2023-05-02T08:10:45.733Z,82.90
2023-05-02T08:15:59.194Z,85.00
2023-05-02T08:21:04.534Z,86.06
2023-05-02T08:26:09.983Z,90.33
2023-05-02T08:31:18.265Z,88.90
2023-05-02T08:36:25.764Z,88.21
2023-05-02T08:41:33.972Z,81.48
2023-05-02T08:46:45.006Z,80.86
2023-05-02T08:51:54.067Z,81.25
2023-05-02T08:57:03.716Z,79.04
2023-05-02T09:02:17.696Z,77.44
2023-05-02T09:07:23.165Z,79.89
2023-05-02T09:12:29.409Z,78.09
2023-05-02T09:17:51.696Z,77.15
2023-05-02T09:22:56.984Z,77.45
2023-05-02T09:28:02.599Z,73.75
2023-05-02T09:33:10.600Z,72.73
2023-05-02T09:38:22.943Z,72.14
2023-05-02T09:43:30.281Z,73.55
2023-05-02T09:48:57.414Z,71.05
2023-05-02T09:54:02.867Z,71.56
2023-05-02T09:59:18.165Z,71.68
2023-05-02T10:04:30.400Z,71.87
2023-05-02T10:09:39.436Z,69.88
2023-05-02T10:14:56.559Z,73.25
2023-05-02T10:20:21.427Z,75.04
2023-05-02T10:25:27.192Z,73.10
2023-05-02T10:30:36.623Z,73.67
2023-05-02T10:35:49.209Z,77.97
2023-05-02T10:41:12.765Z,74.76
2023-05-02T10:46:34.061Z,72.70
2023-05-02T10:51:51.300Z,74.82
2023-05-02T10:57:11.441Z,80.80
2023-05-02T11:02:46.885Z,79.60
2023-05-02T11:08:29.769Z,83.13
2023-05-02T11:13:53.170Z,82.01
2023-05-02T11:19:02.293Z,83.08
2023-05-02T11:24:38.168Z,79.88
2023-05-02T11:30:00.030Z,80.70
2023-05-02T11:35:06.541Z,79.41
2023-05-02T11:40:23.429Z,81.67
2023-05-02T11:45:40.408Z,79.02
2023-05-02T11:50:49.550Z,78.79
2023-05-02T11:55:57.044Z,80.51
2023-05-02T12:01:16.277Z,75.21
2023-05-02T12:06:21.909Z,81.08
2023-05-02T12:11:28.026Z,82.38
2023-05-02T12:16:36.570Z,83.22
2023-05-02T12:21:43.849Z,82.43
2023-05-02T12:26:51.123Z,79.65
2023-05-02T12:32:03.480Z,81.35
2023-05-02T12:37:09.877Z,81.84
2023-05-02T12:42:15.956Z,79.83
2023-05-02T12:47:26.861Z,79.43
2023-05-02T12:52:51.335Z,79.26
2023-05-02T12:58:03.649Z,78.07
2023-05-02T13:03:13.708Z,77.05
2023-05-02T13:08:19.106Z,78.70
2023-05-02T13:13:26.734Z,76.30
2023-05-02T13:18:35.921Z,76.55
2023-05-02T13:23:44.451Z,75.99
2023-05-02T13:28:52.017Z,73.47
2023-05-02T13:33:59.752Z,75.04
2023-05-02T13:39:04.882Z,74.53
2023-05-02T13:44:14.259Z,75.64
2023-05-02T13:49:33.985Z,76.73
2023-05-02T13:54:41.854Z,76.98
2023-05-02T13:59:50.766Z,75.83
2023-05-02T14:05:00.354Z,72.81
2023-05-02T14:10:07.813Z,73.70
2023-05-02T14:21:01.081Z,77.71
2023-05-02T14:26:09.618Z,77.68
2023-05-02T14:31:17.457Z,77.84
2023-05-02T14:36:25.300Z,77.53
2023-05-02T14:41:47.092Z,78.71
2023-05-02T14:46:58.910Z,78.00
2023-05-02T14:52:09.973Z,78.84
2023-05-02T14:57:15.738Z,77.43
2023-05-02T15:02:23.278Z,80.07
2023-05-02T15:07:31.091Z,85.52
2023-05-02T15:12:37.196Z,86.42
2023-05-02T15:17:42.393Z,86.70
2023-05-02T15:22:54.352Z,88.38
2023-05-02T15:28:02.827Z,88.24
2023-05-02T15:33:12.507Z,88.78
2023-05-02T15:38:20.144Z,89.30
2023-05-02T15:43:26.224Z,88.64
2023-05-02T15:48:35.335Z,87.54
2023-05-02T15:53:44.932Z,88.76
2023-05-02T15:58:50.304Z,87.15
2023-05-02T16:03:57.971Z,87.69
2023-05-02T16:09:07.054Z,85.88
2023-05-02T16:14:12.253Z,85.69
2023-05-02T16:19:19.696Z,85.53
2023-05-02T16:24:29.302Z,82.54
2023-05-02T16:29:34.561Z,84.59
2023-05-02T16:34:40.551Z,87.80
2023-05-02T16:39:49.132Z,89.75
2023-05-02T16:44:54.391Z,88.76
2023-05-02T16:50:01.769Z,88.43
2023-05-02T16:55:12.879Z,88.77
2023-05-02T17:00:23.097Z,88.60
2023-05-02T17:05:28.418Z,89.66
2023-05-02T17:10:39.332Z,90.95
2023-05-02T17:15:46.444Z,89.07
2023-05-02T17:20:51.594Z,89.19
2023-05-02T17:25:59.773Z,90.04
2023-05-02T17:31:06.969Z,88.88
2023-05-02T17:36:12.329Z,88.80
2023-05-02T17:41:20.279Z,87.20
2023-05-02T17:46:25.898Z,88.07
2023-05-02T17:51:37.637Z,87.08
2023-05-02T17:56:46.640Z,83.63
2023-05-02T18:01:52.206Z,84.27
2023-05-02T18:06:58.229Z,82.57
2023-05-02T18:12:07.454Z,82.71
2023-05-02T18:17:12.764Z,81.35
2023-05-02T18:22:20.370Z,80.91
2023-05-02T18:27:29.064Z,79.58
2023-05-02T18:32:38.148Z,79.92
2023-05-02T18:37:43.383Z,80.67
2023-05-02T18:42:51.729Z,81.10
2023-05-02T18:47:58.133Z,82.90
2023-05-02T18:53:03.518Z,86.12
2023-05-02T18:58:11.573Z,86.93
2023-05-02T19:03:19.240Z,87.45
2023-05-02T19:08:25.046Z,88.98
2023-05-02T19:13:34.347Z,87.71
2023-05-02T19:18:39.901Z,86.26
2023-05-02T19:23:46.220Z,84.39
2023-05-02T19:28:54.421Z,83.54
2023-05-02T19:34:00.354Z,83.29
2023-05-02T19:39:05.966Z,84.34
2023-05-02T19:44:14.327Z,85.10
2023-05-02T19:49:19.574Z,84.79
2023-05-02T19:54:24.851Z,83.32
2023-05-02T19:59:32.509Z,82.81
2023-05-02T20:04:38.729Z,83.61
2023-05-02T20:09:43.783Z,82.74
2023-05-02T20:14:51.699Z,82.89
2023-05-02T20:19:58.912Z,84.79
2023-05-02T20:25:05.350Z,84.72
2023-05-02T20:30:15.154Z,83.84
2023-05-02T20:35:21.940Z,83.28
2023-05-02T20:40:27.942Z,83.10
2023-05-02T20:45:35.845Z,82.49
2023-05-02T20:50:42.392Z,81.63
2023-05-02T20:55:47.521Z,82.85
2023-05-02T21:00:55.279Z,85.57
2023-05-02T21:06:01.400Z,83.86
2023-05-02T21:11:14.647Z,84.30
2023-05-02T21:16:23.781Z,85.87
2023-05-02T21:21:30.948Z,86.19
2023-05-02T21:26:37.458Z,85.75
2023-05-02T21:31:45.534Z,85.08
2023-05-02T21:36:51.499Z,84.47
2023-05-02T21:41:56.588Z,85.51
2023-05-02T21:47:04.290Z,85.57
2023-05-02T21:52:09.628Z,84.26
2023-05-02T21:57:14.621Z,84.71
2023-05-02T22:02:24.516Z,83.33
2023-05-02T22:07:30.329Z,84.92
2023-05-02T22:12:35.592Z,86.02
2023-05-02T22:17:46.453Z,86.04
2023-05-02T22:22:54.768Z,84.03
2023-05-02T22:28:01.300Z,83.86
2023-05-02T22:33:09.794Z,84.83
2023-05-02T22:38:18.128Z,84.53
2023-05-02T22:43:23.315Z,85.59
2023-05-02T22:48:31.042Z,84.89
2023-05-02T22:53:36.254Z,83.91
2023-05-02T22:58:41.401Z,87.66
2023-05-02T23:03:49.942Z,87.16
2023-05-02T23:08:55.168Z,90.07
2023-05-02T23:14:01.354Z,88.35
2023-05-02T23:19:08.932Z,88.52
2023-05-02T23:24:15.004Z,90.63
2023-05-02T23:29:23.244Z,87.47
2023-05-02T23:34:31.851Z,89.19
2023-05-02T23:39:37.025Z,91.50
2023-05-02T23:44:43.848Z,91.03
2023-05-02T23:49:51.535Z,89.98
2023-05-02T23:54:56.691Z,90.80
